createdAt,value
2023-01-25T00:00:04.446Z,17.75
2023-01-25T00:03:05.917Z,17.20
2023-01-25T00:06:09.859Z,19.63
2023-01-25T00:09:11.947Z,17.73
2023-01-25T00:12:14.568Z,18.02
2023-01-25T00:15:15.943Z,18.88
2023-01-25T00:18:18.483Z,18.00
2023-01-25T00:21:21.589Z,16.77
2023-01-25T00:24:26.291Z,15.77
2023-01-25T00:27:29.282Z,19.35
2023-01-25T00:30:30.612Z,15.90
2023-01-25T00:33:45.283Z,19.08
2023-01-25T00:36:49.416Z,15.97
2023-01-25T00:39:53.181Z,15.87
2023-01-25T00:42:56.287Z,16.25
2023-01-25T00:46:00.754Z,17.55
2023-01-25T00:49:03.423Z,17.50
2023-01-25T00:52:05.811Z,19.73
2023-01-25T00:55:11.113Z,19.27
2023-01-25T00:58:12.427Z,18.80
2023-01-25T01:01:15.101Z,17.75
2023-01-25T01:07:39.043Z,21.23
2023-01-25T01:10:41.519Z,19.67
2023-01-25T01:17:04.784Z,18.92
2023-01-25T01:20:07.956Z,20.15
2023-01-25T01:23:09.288Z,19.07
2023-01-25T01:26:15.276Z,15.73
2023-01-25T01:29:17.975Z,21.40
2023-01-25T01:32:19.419Z,18.90
2023-01-25T01:35:22.109Z,17.83
2023-01-25T01:38:23.831Z,18.63
2023-01-25T01:41:27.339Z,20.47
2023-01-25T01:44:46.505Z,17.65
2023-01-25T01:47:48.036Z,19.27
2023-01-25T01:50:57.600Z,19.65
2023-01-25T01:54:03.640Z,18.87
2023-01-25T01:57:09.933Z,17.57
2023-01-25T02:00:15.206Z,20.60
2023-01-25T02:03:18.025Z,17.23
2023-01-25T02:06:26.121Z,20.58
2023-01-25T02:09:33.045Z,20.27
2023-01-25T02:12:37.652Z,18.30
2023-01-25T02:15:45.679Z,19.75
2023-01-25T02:18:46.994Z,17.10
2023-01-25T02:21:51.580Z,19.65
2023-01-25T02:25:02.368Z,17.83
2023-01-25T02:28:10.163Z,21.50
2023-01-25T02:31:11.866Z,21.25
2023-01-25T02:34:14.525Z,20.55
2023-01-25T02:37:17.260Z,18.75
2023-01-25T02:43:42.234Z,18.17
2023-01-25T02:46:45.791Z,18.25
2023-01-25T02:49:47.140Z,18.50
2023-01-25T02:52:49.697Z,17.33
2023-01-25T02:55:51.808Z,18.30
2023-01-25T02:58:54.794Z,19.73
2023-01-25T03:01:56.150Z,20.50
2023-01-25T03:04:58.777Z,19.27
2023-01-25T03:08:00.175Z,17.83
2023-01-25T03:11:05.357Z,18.67
2023-01-25T03:14:08.011Z,19.43
2023-01-25T03:17:09.387Z,18.52
2023-01-25T03:20:13.062Z,22.48
2023-01-25T03:23:15.718Z,20.10
2023-01-25T03:26:19.865Z,19.73
2023-01-25T03:29:22.496Z,19.23
2023-01-25T03:32:23.864Z,20.35
2023-01-25T03:35:26.602Z,18.13
2023-01-25T03:38:28.125Z,20.33
2023-01-25T03:41:30.104Z,20.10
2023-01-25T03:44:32.765Z,18.77
2023-01-25T03:47:34.050Z,19.00
2023-01-25T03:50:36.616Z,17.85
2023-01-25T03:53:37.918Z,18.73
2023-01-25T03:56:41.386Z,17.67
2023-01-25T03:59:42.701Z,19.73
2023-01-25T04:02:45.275Z,17.23
2023-01-25T04:05:46.778Z,18.25
2023-01-25T04:08:48.137Z,18.65
2023-01-25T04:11:50.385Z,19.43
2023-01-25T04:14:51.724Z,19.90
2023-01-25T04:17:52.997Z,18.02
2023-01-25T04:20:55.067Z,21.17
2023-01-25T04:23:56.415Z,20.80
2023-01-25T04:26:59.646Z,18.23
2023-01-25T04:30:00.911Z,17.67
2023-01-25T04:33:04.152Z,19.55
2023-01-25T04:36:07.174Z,21.05
2023-01-25T04:39:08.468Z,19.65
2023-01-25T04:42:11.966Z,18.43
2023-01-25T04:45:13.430Z,18.00
2023-01-25T04:48:16.256Z,19.45
2023-01-25T04:51:17.541Z,18.23
2023-01-25T04:54:20.040Z,19.45
2023-01-25T04:57:22.286Z,19.20
2023-01-25T05:00:23.776Z,19.93
2023-01-25T05:03:26.789Z,19.45
2023-01-25T05:06:30.276Z,20.67
2023-01-25T05:09:31.596Z,19.05
2023-01-25T05:12:34.971Z,19.53
2023-01-25T05:15:37.326Z,19.47
2023-01-25T05:18:48.303Z,20.08
2023-01-25T05:22:00.268Z,19.88
2023-01-25T05:25:04.014Z,20.17
2023-01-25T05:28:06.326Z,17.67
2023-01-25T05:34:28.823Z,18.95
2023-01-25T05:37:31.369Z,20.08
2023-01-25T05:40:32.845Z,19.23
2023-01-25T05:43:36.048Z,19.30
2023-01-25T05:46:37.371Z,17.60
2023-01-25T05:49:38.705Z,20.70
2023-01-25T05:52:40.229Z,18.42
2023-01-25T05:59:04.598Z,20.73
2023-01-25T06:02:06.183Z,17.57
2023-01-25T06:05:10.112Z,18.60
2023-01-25T06:08:11.764Z,17.77
2023-01-25T06:14:36.557Z,16.07
2023-01-25T06:17:37.833Z,18.83
2023-01-25T06:20:40.386Z,18.52
2023-01-25T06:23:43.632Z,18.65
2023-01-25T06:26:46.318Z,16.05
2023-01-25T06:29:48.417Z,20.13
2023-01-25T06:32:51.121Z,17.23
2023-01-25T06:35:53.720Z,16.90
2023-01-25T06:38:56.756Z,18.70
2023-01-25T06:41:58.025Z,17.48
2023-01-25T06:45:01.307Z,19.70
2023-01-25T06:48:02.770Z,17.20
2023-01-25T06:51:09.971Z,17.83
2023-01-25T06:54:11.290Z,16.35
2023-01-25T06:57:12.633Z,15.43
2023-01-25T07:00:16.116Z,17.97
2023-01-25T07:03:17.607Z,16.47
2023-01-25T07:06:19.444Z,16.60
2023-01-25T07:09:23.564Z,16.42
2023-01-25T07:12:27.821Z,17.92
2023-01-25T07:15:29.774Z,19.70
2023-01-25T07:18:33.629Z,16.87
2023-01-25T07:21:34.985Z,18.40
2023-01-25T07:24:37.602Z,16.75
2023-01-25T07:27:38.928Z,18.45
2023-01-25T07:30:41.493Z,17.40
2023-01-25T07:33:49.142Z,15.47
2023-01-25T07:36:51.743Z,17.95
2023-01-25T07:39:54.319Z,17.10
2023-01-25T07:42:55.733Z,16.88
2023-01-25T07:46:05.042Z,16.83
2023-01-25T07:49:07.752Z,15.03
2023-01-25T07:52:09.224Z,15.90
2023-01-25T07:55:12.117Z,15.15
2023-01-25T07:58:14.128Z,16.05
2023-01-25T08:01:18.882Z,17.17
2023-01-25T08:04:20.242Z,18.00
2023-01-25T08:07:23.987Z,16.33
2023-01-25T08:10:25.408Z,17.90
2023-01-25T08:13:28.034Z,16.33
2023-01-25T08:16:33.675Z,16.77
2023-01-25T08:19:35.063Z,18.13
2023-01-25T08:22:36.347Z,15.13
2023-01-25T08:25:39.991Z,15.35
2023-01-25T08:28:42.654Z,14.10
2023-01-25T08:31:44.687Z,17.57
2023-01-25T08:34:46.242Z,15.93
2023-01-25T08:37:47.542Z,16.38
2023-01-25T08:40:50.158Z,19.33
2023-01-25T08:43:52.483Z,16.63
2023-01-25T08:46:54.522Z,17.87
2023-01-25T08:49:55.922Z,15.57
2023-01-25T08:52:57.234Z,16.10
2023-01-25T08:56:03.304Z,17.00
2023-01-25T08:59:06.700Z,17.25
2023-01-25T09:02:11.428Z,16.80
2023-01-25T09:05:14.063Z,16.10
2023-01-25T09:08:16.640Z,19.38
2023-01-25T09:11:20.115Z,16.75
2023-01-25T09:14:21.639Z,14.88
2023-01-25T09:17:24.888Z,15.33
2023-01-25T09:20:26.289Z,20.67
2023-01-25T09:23:27.904Z,17.98
2023-01-25T09:26:30.746Z,16.80
2023-01-25T09:29:32.762Z,16.73
2023-01-25T09:32:35.012Z,21.30
2023-01-25T09:35:36.574Z,16.03
2023-01-25T09:38:39.872Z,21.63
2023-01-25T09:45:48.568Z,18.88
2023-01-25T09:49:07.598Z,17.70
2023-01-25T09:55:54.490Z,18.88
2023-01-25T09:59:01.237Z,19.45
2023-01-25T10:02:14.087Z,17.50
2023-01-25T10:05:21.128Z,19.90
2023-01-25T10:08:31.551Z,17.93
2023-01-25T10:11:33.478Z,20.10
2023-01-25T10:14:36.232Z,21.33
2023-01-25T10:17:40.168Z,21.08
2023-01-25T10:20:48.203Z,19.37
2023-01-25T10:24:08.878Z,18.70
2023-01-25T10:27:23.460Z,22.75
2023-01-25T10:30:27.865Z,20.00
2023-01-25T10:33:34.270Z,18.83
2023-01-25T10:36:37.141Z,20.83
2023-01-25T10:39:45.037Z,22.80
2023-01-25T10:42:53.697Z,21.10
2023-01-25T10:45:56.629Z,21.42
2023-01-25T10:49:02.526Z,24.00
2023-01-25T10:52:17.572Z,25.27
2023-01-25T10:55:22.395Z,21.07
2023-01-25T10:58:33.790Z,23.15
2023-01-25T11:01:36.695Z,22.38
2023-01-25T11:04:40.462Z,23.40
2023-01-25T11:07:42.529Z,23.60
2023-01-25T11:10:45.800Z,23.33
2023-01-25T11:13:47.321Z,21.85
2023-01-25T11:16:49.179Z,25.92
2023-01-25T11:20:08.115Z,23.02
2023-01-25T11:23:22.511Z,24.30
2023-01-25T11:26:25.393Z,22.77
2023-01-25T11:29:26.867Z,26.45
2023-01-25T11:32:29.461Z,20.60
2023-01-25T11:35:35.255Z,24.98
2023-01-25T11:38:39.788Z,20.50
2023-01-25T11:42:04.220Z,23.77
2023-01-25T11:45:33.356Z,24.88
2023-01-25T11:49:01.030Z,24.25
2023-01-25T11:52:13.980Z,23.38
2023-01-25T11:55:24.772Z,27.30
2023-01-25T11:58:42.908Z,24.00
2023-01-25T12:02:05.185Z,23.83
2023-01-25T12:05:23.151Z,22.65
2023-01-25T12:08:42.489Z,27.92
2023-01-25T12:11:59.547Z,25.67
2023-01-25T12:15:13.928Z,26.63
2023-01-25T12:18:36.492Z,22.40
2023-01-25T12:21:54.879Z,24.42
2023-01-25T12:25:02.931Z,25.50
2023-01-25T12:28:14.100Z,23.60
2023-01-25T12:31:22.988Z,25.37
2023-01-25T12:34:34.132Z,21.98
2023-01-25T12:37:40.996Z,24.42
2023-01-25T12:40:50.783Z,23.20
2023-01-25T12:43:55.906Z,23.17
2023-01-25T12:47:05.253Z,21.23
2023-01-25T12:50:17.882Z,24.95
2023-01-25T12:53:21.539Z,23.13
2023-01-25T12:56:33.929Z,22.50
2023-01-25T12:59:44.422Z,20.87
2023-01-25T13:02:59.900Z,23.33
2023-01-25T13:06:10.689Z,24.23
2023-01-25T13:12:53.976Z,22.83
2023-01-25T13:15:57.351Z,25.67
2023-01-25T13:18:59.191Z,24.23
2023-01-25T13:22:01.739Z,21.73
2023-01-25T13:25:09.789Z,23.58
2023-01-25T13:28:43.828Z,22.27
2023-01-25T13:31:51.929Z,25.67
2023-01-25T13:34:59.459Z,22.00
2023-01-25T13:38:20.774Z,22.15
2023-01-25T13:41:23.483Z,20.40
2023-01-25T13:44:27.763Z,20.98
2023-01-25T13:47:35.153Z,20.90
2023-01-25T13:50:43.908Z,25.23
2023-01-25T13:53:56.889Z,25.05
2023-01-25T13:57:05.103Z,24.02
2023-01-25T14:00:15.545Z,26.48
2023-01-25T14:03:19.419Z,22.07
2023-01-25T14:06:25.922Z,23.63
2023-01-25T14:09:29.074Z,19.50
2023-01-25T14:12:36.990Z,21.60
2023-01-25T14:15:38.349Z,21.00
2023-01-25T14:18:42.370Z,21.30
2023-01-25T14:21:43.753Z,20.47
2023-01-25T14:24:45.076Z,20.88
2023-01-25T14:27:50.988Z,20.80
2023-01-25T14:30:54.233Z,19.50
2023-01-25T14:33:57.804Z,21.17
2023-01-25T14:37:06.724Z,22.70
2023-01-25T14:40:12.375Z,21.85
2023-01-25T14:43:16.597Z,21.65
2023-01-25T14:46:27.913Z,20.83
2023-01-25T14:49:29.980Z,21.00
2023-01-25T14:52:31.324Z,19.43
2023-01-25T14:55:34.005Z,21.02
2023-01-25T14:58:35.468Z,20.13
2023-01-25T15:01:40.840Z,21.65
2023-01-25T15:04:55.623Z,23.30
2023-01-25T15:07:59.573Z,20.77
2023-01-25T15:11:33.932Z,19.60
2023-01-25T15:14:47.792Z,17.63
2023-01-25T15:17:50.759Z,23.80
2023-01-25T15:20:52.960Z,20.23
2023-01-25T15:23:57.076Z,21.27
2023-01-25T15:26:58.411Z,22.02
2023-01-25T15:30:00.968Z,22.33
2023-01-25T15:33:02.280Z,19.52
2023-01-25T15:39:23.996Z,20.13
2023-01-25T15:42:26.558Z,19.60
2023-01-25T15:45:27.890Z,19.55
2023-01-25T15:48:32.249Z,22.20
2023-01-25T15:51:35.989Z,18.57
2023-01-25T15:54:37.366Z,18.63
2023-01-25T15:57:40.030Z,20.83
2023-01-25T16:00:41.483Z,21.45
2023-01-25T16:03:44.108Z,20.45
2023-01-25T16:06:49.328Z,18.93
2023-01-25T16:09:51.917Z,20.33
2023-01-25T16:12:53.316Z,19.75
2023-01-25T16:15:56.414Z,20.92
2023-01-25T16:18:57.784Z,21.00
2023-01-25T16:22:00.998Z,17.60
2023-01-25T16:25:03.742Z,21.20
2023-01-25T16:28:06.486Z,20.48
2023-01-25T16:31:16.757Z,22.25
2023-01-25T16:34:25.247Z,21.08
2023-01-25T16:37:27.193Z,24.33
2023-01-25T16:40:36.285Z,22.40
2023-01-25T16:43:42.946Z,19.88
2023-01-25T16:46:44.762Z,22.80
2023-01-25T16:49:48.390Z,21.05
2023-01-25T16:52:50.771Z,19.47
2023-01-25T16:55:53.653Z,25.20
2023-01-25T16:58:57.089Z,26.25
2023-01-25T17:01:59.590Z,46.28
2023-01-25T17:05:00.930Z,33.30
2023-01-25T17:08:05.082Z,24.77
2023-01-25T17:11:06.903Z,22.92
2023-01-25T17:14:13.528Z,20.60
2023-01-25T17:17:14.904Z,22.45
2023-01-25T17:20:17.293Z,20.43
2023-01-25T17:23:19.316Z,25.73
2023-01-25T17:26:22.986Z,22.33
2023-01-25T17:29:26.144Z,21.92
2023-01-25T17:32:28.022Z,18.38
2023-01-25T17:35:31.127Z,22.83
2023-01-25T17:38:33.341Z,19.87
2023-01-25T17:41:36.118Z,19.73
2023-01-25T17:44:37.588Z,17.25
2023-01-25T17:47:40.113Z,24.40
2023-01-25T17:50:42.679Z,19.30
2023-01-25T17:53:44.968Z,20.70
2023-01-25T17:56:47.790Z,19.48
2023-01-25T17:59:49.446Z,17.48
2023-01-25T18:06:16.016Z,22.10
2023-01-25T18:09:19.562Z,18.17
2023-01-25T18:12:20.909Z,19.50
2023-01-25T18:15:22.932Z,20.10
2023-01-25T18:18:25.614Z,19.42
2023-01-25T18:24:50.927Z,17.17
2023-01-25T18:27:54.382Z,17.80
2023-01-25T18:31:00.146Z,18.42
2023-01-25T18:37:24.875Z,19.63
2023-01-25T18:40:30.335Z,29.83
2023-01-25T18:43:32.752Z,24.50
2023-01-25T18:46:35.420Z,19.10
2023-01-25T18:49:37.999Z,15.82
2023-01-25T18:52:39.355Z,16.47
2023-01-25T18:55:43.091Z,16.43
2023-01-25T18:58:46.295Z,16.40
2023-01-25T19:01:47.708Z,18.75
2023-01-25T19:04:49.581Z,17.70
2023-01-25T19:07:52.110Z,15.30
2023-01-25T19:10:59.527Z,13.97
2023-01-25T19:14:02.367Z,13.90
2023-01-25T19:17:03.797Z,12.63
2023-01-25T19:20:07.303Z,15.02
2023-01-25T19:23:08.565Z,12.90
2023-01-25T19:26:14.185Z,16.10
2023-01-25T19:29:15.867Z,14.95
2023-01-25T19:32:17.427Z,13.38
2023-01-25T19:35:19.047Z,14.90
2023-01-25T19:38:20.423Z,12.47
2023-01-25T19:41:24.942Z,14.40
2023-01-25T19:44:26.517Z,14.45
2023-01-25T19:47:27.774Z,14.55
2023-01-25T19:50:30.071Z,13.73
2023-01-25T19:53:31.385Z,17.55
2023-01-25T19:56:38.767Z,15.60
2023-01-25T19:59:40.098Z,14.77
2023-01-25T20:02:42.723Z,13.80
2023-01-25T20:05:44.043Z,16.67
2023-01-25T20:08:49.257Z,16.20
2023-01-25T20:11:51.242Z,17.15
2023-01-25T20:14:53.237Z,14.85
2023-01-25T20:17:56.627Z,15.18
2023-01-25T20:20:59.821Z,15.80
2023-01-25T20:24:04.041Z,14.38
2023-01-25T20:27:06.670Z,16.67
2023-01-25T20:30:08.984Z,16.33
2023-01-25T20:33:10.903Z,15.43
2023-01-25T20:36:13.405Z,16.30
2023-01-25T20:39:17.804Z,15.75
2023-01-25T20:42:19.792Z,17.90
2023-01-25T20:45:21.057Z,15.50
2023-01-25T20:48:22.492Z,14.95
2023-01-25T20:51:23.832Z,15.43
2023-01-25T20:54:25.442Z,14.68
2023-01-25T20:57:27.491Z,14.40
2023-01-25T21:00:28.797Z,15.85
2023-01-25T21:06:54.549Z,16.03
2023-01-25T21:09:55.910Z,17.42
2023-01-25T21:16:20.615Z,16.42
2023-01-25T21:19:22.152Z,17.08
2023-01-25T21:22:25.431Z,17.80
2023-01-25T21:25:26.754Z,16.23
2023-01-25T21:31:52.602Z,15.65
2023-01-25T21:34:55.198Z,17.92
2023-01-25T21:37:57.747Z,15.27
2023-01-25T21:41:00.440Z,17.63
2023-01-25T21:44:22.427Z,16.90
2023-01-25T21:47:30.517Z,16.20
2023-01-25T21:54:11.613Z,16.97
2023-01-25T21:57:14.141Z,19.17
2023-01-25T22:03:38.139Z,15.13
2023-01-25T22:06:40.263Z,18.38
2023-01-25T22:13:03.600Z,17.70
2023-01-25T22:16:08.066Z,16.05
2023-01-25T22:19:10.710Z,19.58
2023-01-25T22:22:13.494Z,17.35
2023-01-25T22:25:16.240Z,14.00
2023-01-25T22:28:19.345Z,16.87
2023-01-25T22:31:24.403Z,16.38
2023-01-25T22:34:27.755Z,18.20
2023-01-25T22:37:28.992Z,16.00
2023-01-25T22:40:31.820Z,15.17
2023-01-25T22:43:33.529Z,15.50
2023-01-25T22:46:37.543Z,14.85
2023-01-25T22:49:40.192Z,16.60
2023-01-25T22:52:41.491Z,16.65
2023-01-25T22:55:44.173Z,15.27
2023-01-25T22:58:46.745Z,16.63
2023-01-25T23:01:50.307Z,19.90
2023-01-25T23:04:51.681Z,16.40
2023-01-25T23:07:54.819Z,17.65
2023-01-25T23:14:40.321Z,17.30
2023-01-25T23:18:01.537Z,17.30
2023-01-25T23:21:05.115Z,18.08
2023-01-25T23:24:07.289Z,14.63
2023-01-25T23:27:09.885Z,18.07
2023-01-25T23:30:12.095Z,18.27
2023-01-25T23:33:14.225Z,17.58
2023-01-25T23:36:18.460Z,16.65
2023-01-25T23:39:20.406Z,15.65
2023-01-25T23:42:22.939Z,17.93
2023-01-25T23:45:24.282Z,18.63
2023-01-25T23:51:49.078Z,17.98
2023-01-25T23:54:50.352Z,18.55
2023-01-25T23:57:54.275Z,13.80
